Time;durP1;ratioP1;P1;durP2;ratioP2;P2;SDS_P1;SDS_P2;PMS_P1;PMS_P2;Temp;Humidity;BMP_temperature;BMP_pressure;BME280_temperature;BME280_humidity;BME280_pressure;Samples;Min_cycle;Max_cycle;Signal;HPM_P1;HPM_P2
2021/03/12 00:00:03;347956.00;1.16;600.35;0.00;0.00;0.62;;;;;9.60;1.00;;;;;;2242354;62;1952;-85
2021/03/12 00:02:30;332650.00;1.11;574.04;0.00;0.00;0.62;;;;;9.70;1.00;;;;;;2242903;62;1402;-85
2021/03/12 00:04:59;415597.00;1.39;716.62;2247.00;0.01;4.51;;;;;9.60;1.00;;;;;;2238188;62;1106;-85
2021/03/12 00:07:27;391673.00;1.31;675.49;0.00;0.00;0.62;;;;;9.30;1.00;;;;;;2239946;62;1200;-86
2021/03/12 00:09:53;373200.00;1.24;643.74;0.00;0.00;0.62;;;;;9.30;1.00;;;;;;2246378;62;1150;-85
2021/03/12 00:12:20;430313.00;1.43;741.92;79927.00;0.27;138.91;;;;;9.60;1.00;;;;;;2241498;61;1431;-88
2021/03/12 00:14:46;401959.00;1.34;693.17;46121.00;0.15;80.48;;;;;9.40;1.00;;;;;;2258461;61;1102;-85
2021/03/12 00:17:13;401434.00;1.34;692.27;0.00;0.00;0.62;;;;;9.30;1.00;;;;;;2259810;61;1220;-85
2021/03/12 00:19:39;501393.00;1.67;864.22;0.00;0.00;0.62;;;;;9.60;1.00;;;;;;2267012;61;1984;-85
2021/03/12 00:22:06;389309.00;1.30;671.43;43149.00;0.14;75.34;;;;;9.60;1.00;;;;;;2260439;61;1417;-85
2021/03/12 00:24:34;366857.00;1.22;632.83;27464.00;0.09;48.19;;;;;10.00;1.00;;;;;;2258740;61;1111;-85
2021/03/12 00:27:00;366116.00;1.22;631.56;88638.00;0.30;153.96;;;;;10.10;1.00;;;;;;2255338;61;1077;-86
2021/03/12 00:29:27;385596.00;1.29;665.04;0.00;0.00;0.62;;;;;10.10;1.00;;;;;;2248753;61;1169;-86
2021/03/12 00:31:54;385787.00;1.29;665.37;83457.00;0.28;145.01;;;;;10.20;1.00;;;;;;2242506;62;1397;-86
2021/03/12 00:34:25;347475.00;1.16;599.52;74004.00;0.25;128.68;;;;;10.20;1.00;;;;;;2238576;62;1011;-85
2021/03/12 00:36:54;390497.00;1.30;673.47;74115.00;0.25;128.87;;;;;10.40;1.00;;;;;;2238915;62;1158;-85
2021/03/12 00:39:20;237868.00;0.79;411.08;0.00;0.00;0.62;;;;;9.90;1.00;;;;;;2234554;62;2007;-87
2021/03/12 00:41:48;391853.00;1.31;675.80;36824.00;0.12;64.39;;;;;9.90;1.00;;;;;;2236690;62;1338;-85
2021/03/12 00:44:14;325313.00;1.08;561.43;0.00;0.00;0.62;;;;;9.90;1.00;;;;;;2246031;62;1070;-85
2021/03/12 00:46:41;547299.00;1.82;943.30;448.00;0.00;1.40;;;;;10.20;1.00;;;;;;2238533;62;1083;-84
2021/03/12 00:49:07;301423.00;1.00;520.37;0.00;0.00;0.62;;;;;9.80;1.00;;;;;;2238252;62;1083;-87
2021/03/12 00:51:35;392509.00;1.31;676.93;0.00;0.00;0.62;;;;;9.70;1.00;;;;;;2238756;62;1154;-86
2021/03/12 00:54:02;481145.00;1.60;829.37;0.00;0.00;0.62;;;;;10.00;1.00;;;;;;2238546;62;1322;-86
2021/03/12 00:56:28;317551.00;1.06;548.09;0.00;0.00;0.62;;;;;10.10;1.00;;;;;;2241583;62;1082;-87
2021/03/12 00:58:56;455676.00;1.52;785.55;0.00;0.00;0.62;;;;;10.20;1.00;;;;;;2254148;61;1058;-86
2021/03/12 01:01:23;372324.00;1.24;642.23;9364.00;0.03;16.85;;;;;10.40;1.00;;;;;;2259755;61;1924;-85
2021/03/12 01:03:49;434180.00;1.45;748.57;62775.00;0.21;109.27;;;;;10.30;1.00;;;;;;2260366;61;1366;-88
2021/03/12 01:06:16;352783.00;1.18;608.64;0.00;0.00;0.62;;;;;10.60;1.00;;;;;;2267462;61;1232;-86
2021/03/12 01:08:43;429391.00;1.43;740.34;91090.00;0.30;158.19;;;;;10.90;1.00;;;;;;2266977;61;1156;-85
2021/03/12 01:11:10;386285.00;1.29;666.23;0.00;0.00;0.62;;;;;11.00;1.00;;;;;;2266560;61;1144;-85
2021/03/12 01:13:36;430408.00;1.43;742.09;44452.00;0.15;77.59;;;;;10.80;1.00;;;;;;2266718;61;1405;-86
2021/03/12 01:16:04;297625.00;0.99;513.84;0.00;0.00;0.62;;;;;10.70;1.00;;;;;;2258671;61;1136;-85
2021/03/12 01:18:31;293873.00;0.98;507.39;0.00;0.00;0.62;;;;;10.80;1.00;;;;;;2258700;61;1197;-85
2021/03/12 01:20:58;474718.00;1.58;818.31;19918.00;0.07;35.13;;;;;11.00;1.00;;;;;;2253061;61;1928;-86
2021/03/12 01:23:25;179097.00;0.60;309.93;0.00;0.00;0.62;;;;;11.10;1.00;;;;;;2260468;61;1453;-85
2021/03/12 01:25:52;392258.00;1.31;676.50;22126.00;0.07;38.95;;;;;11.30;1.00;;;;;;2259089;61;1062;-85
2021/03/12 01:28:19;344198.00;1.15;593.89;0.00;0.00;0.62;;;;;11.40;1.00;;;;;;2259066;61;1165;-85
2021/03/12 01:30:48;337361.00;1.12;582.14;0.00;0.00;0.62;;;;;11.40;1.00;;;;;;2256031;61;1149;-85
2021/03/12 01:33:16;264519.00;0.88;456.92;0.00;0.00;0.62;;;;;11.50;1.00;;;;;;2260275;61;1434;-85
2021/03/12 01:35:43;284813.00;0.95;491.81;0.00;0.00;0.62;;;;;11.20;1.00;;;;;;2260845;61;967;-86
2021/03/12 01:38:11;170574.00;0.57;295.26;0.00;0.00;0.62;;;;;11.10;1.00;;;;;;2267449;61;1007;-85
2021/03/12 01:40:40;313727.00;1.05;541.52;0.00;0.00;0.62;;;;;11.00;1.00;;;;;;2267075;61;1913;-85
2021/03/12 01:43:09;235282.00;0.78;406.64;0.00;0.00;0.62;;;;;10.90;1.00;;;;;;2268450;61;1294;-86
2021/03/12 01:45:39;242810.00;0.81;419.58;0.00;0.00;0.62;;;;;11.20;1.00;;;;;;2263035;61;1070;-85
2021/03/12 01:48:09;408720.00;1.36;704.80;0.00;0.00;0.62;;;;;11.50;1.00;;;;;;2266971;61;1120;-85
2021/03/12 01:50:40;569050.00;1.90;980.81;0.00;0.00;0.62;;;;;11.40;1.00;;;;;;2266486;61;1734;-85
2021/03/12 01:53:09;364718.00;1.22;629.16;0.00;0.00;0.62;;;;;11.20;1.00;;;;;;2266759;61;1428;-86
2021/03/12 01:59:09;166409.00;0.55;288.08;0.00;0.00;0.62;;;;;10.90;1.00;;;;;;2267051;61;932;-85
2021/03/12 02:04:57;233041.00;0.78;402.78;0.00;0.00;0.62;;;;;10.90;1.00;;;;;;2275247;61;930;-85
2021/03/12 02:07:25;216060.00;0.72;373.56;0.00;0.00;0.62;;;;;11.00;1.00;;;;;;2275464;61;1084;-86
2021/03/12 02:09:52;184424.00;0.61;319.11;0.00;0.00;0.62;;;;;10.80;1.00;;;;;;2267828;61;1045;-85
2021/03/12 02:12:28;178023.00;0.59;308.08;0.00;0.00;0.62;;;;;10.80;1.00;;;;;;2274302;61;1385;-85
2021/03/12 02:15:03;352191.00;1.17;607.63;79141.00;0.26;137.55;;;;;10.90;1.00;;;;;;2274931;61;1075;-85
2021/03/12 02:17:44;411710.00;1.37;709.94;0.00;0.00;0.62;;;;;10.80;1.00;;;;;;2266336;61;1093;-85
2021/03/12 02:20:35;253873.00;0.85;438.61;0.00;0.00;0.62;;;;;10.40;1.00;;;;;;2266097;61;2006;-84
2021/03/12 02:23:14;279416.00;0.93;482.53;0.00;0.00;0.62;;;;;10.70;1.00;;;;;;2265314;61;1361;-86
2021/03/12 02:25:47;318771.00;1.06;550.19;11206.00;0.04;20.04;;;;;11.00;1.00;;;;;;2265714;61;1153;-86
2021/03/12 02:28:17;245043.00;0.82;423.43;20628.00;0.07;36.36;;;;;11.00;1.00;;;;;;2254343;61;1090;-85
2021/03/12 02:30:44;198312.00;0.66;343.02;0.00;0.00;0.62;;;;;10.80;1.00;;;;;;2254646;61;1144;-88
2021/03/12 02:33:12;226278.00;0.75;391.15;0.00;0.00;0.62;;;;;10.70;1.00;;;;;;2251710;61;1433;-88
2021/03/12 02:35:42;210305.00;0.70;363.66;0.00;0.00;0.62;;;;;10.90;1.00;;;;;;2254293;61;1035;-85
2021/03/12 02:38:09;596258.00;1.99;1027.76;31446.00;0.10;55.09;;;;;11.00;1.00;;;;;;2257915;61;1094;-86
2021/03/12 02:40:37;347464.00;1.16;599.50;0.00;0.00;0.62;;;;;11.00;1.00;;;;;;2250516;61;1997;-86
2021/03/12 02:43:05;272490.00;0.91;470.63;34033.00;0.11;59.56;;;;;11.10;1.00;;;;;;2245342;62;1369;-86
2021/03/12 02:45:33;343512.00;1.15;592.71;0.00;0.00;0.62;;;;;11.10;1.00;;;;;;2247435;61;1134;-85
2021/03/12 02:48:00;244192.00;0.81;421.96;0.00;0.00;0.62;;;;;10.80;1.00;;;;;;2257782;61;1213;-86
2021/03/12 02:50:27;377870.00;1.26;651.76;0.00;0.00;0.62;;;;;10.80;1.00;;;;;;2259432;61;1092;-85
2021/03/12 02:52:54;284321.00;0.95;490.97;0.00;0.00;0.62;;;;;10.60;1.00;;;;;;2263296;61;1366;-86
2021/03/12 02:55:21;337913.00;1.13;583.09;43572.00;0.15;76.07;;;;;10.70;1.00;;;;;;2262816;61;1093;-86
2021/03/12 02:57:48;437921.00;1.46;755.01;41219.00;0.14;72.00;;;;;10.80;1.00;;;;;;2261806;61;1684;-86
2021/03/12 03:00:15;469245.00;1.56;808.89;82098.00;0.27;142.66;;;;;10.70;1.00;;;;;;2263108;61;1987;-86
2021/03/12 03:02:44;286365.00;0.95;494.48;0.00;0.00;0.62;;;;;10.40;1.00;;;;;;2273725;61;1435;-85
2021/03/12 03:05:12;290048.00;0.97;500.81;0.00;0.00;0.62;;;;;10.10;1.00;;;;;;2269323;61;1239;-85
2021/03/12 03:07:40;455550.00;1.52;785.33;0.00;0.00;0.62;;;;;10.00;1.00;;;;;;2273527;61;1192;-85
2021/03/12 03:10:09;432861.00;1.44;746.31;90748.00;0.30;157.60;;;;;9.80;1.00;;;;;;2274042;61;1042;-85
2021/03/12 03:12:37;445908.00;1.49;768.74;80107.00;0.27;139.22;;;;;10.30;1.00;;;;;;2273917;61;1277;-86
2021/03/12 03:15:07;370883.00;1.24;639.75;0.00;0.00;0.62;;;;;10.60;1.00;;;;;;2271871;61;1199;-86
2021/03/12 03:17:37;322528.00;1.08;556.64;0.00;0.00;0.62;;;;;10.90;1.00;;;;;;2275474;61;1025;-87
2021/03/12 03:20:09;463219.00;1.54;798.52;0.00;0.00;0.62;;;;;11.10;1.00;;;;;;2274033;61;1990;-85
2021/03/12 03:22:38;353040.00;1.18;609.09;0.00;0.00;0.62;;;;;11.20;1.00;;;;;;2273962;61;1327;-86
2021/03/12 03:25:09;398446.00;1.33;687.13;88698.00;0.30;154.06;;;;;10.80;1.00;;;;;;2273936;61;1112;-86
2021/03/12 03:27:36;276735.00;0.92;477.92;0.00;0.00;0.62;;;;;10.90;1.00;;;;;;2273462;61;1287;-86
2021/03/12 03:35:33;175614.00;0.59;303.94;0.00;0.00;0.62;;;;;10.20;1.00;;;;;;2272918;61;1523;-85
2021/03/12 03:38:01;337853.00;1.13;582.98;0.00;0.00;0.62;;;;;10.30;1.00;;;;;;2275228;61;1513;-85
2021/03/12 03:40:27;321529.00;1.07;554.93;0.00;0.00;0.62;;;;;9.90;1.00;;;;;;2272335;61;1935;-86
2021/03/12 03:42:57;387696.00;1.29;668.65;0.00;0.00;0.62;;;;;9.30;1.00;;;;;;2273703;61;1375;-85
2021/03/12 03:45:27;345928.00;1.15;596.86;0.00;0.00;0.62;;;;;9.20;1.00;;;;;;2276841;61;1174;-86
2021/03/12 03:47:58;593175.00;1.98;1022.44;38685.00;0.13;67.61;;;;;9.20;1.00;;;;;;2278351;61;1139;-85
2021/03/12 03:50:25;251792.00;0.84;435.03;0.00;0.00;0.62;;;;;9.20;1.00;;;;;;2277645;61;1165;-86
2021/03/12 03:52:52;171668.00;0.57;297.14;0.00;0.00;0.62;;;;;9.50;1.00;;;;;;2273857;61;1254;-86
2021/03/12 03:55:25;269194.00;0.90;464.96;0.00;0.00;0.62;;;;;9.90;1.00;;;;;;2273191;61;1204;-85
2021/03/12 03:57:52;369510.00;1.23;637.39;0.00;0.00;0.62;;;;;9.80;1.00;;;;;;2275462;61;1384;-87
2021/03/12 04:00:20;376955.00;1.26;650.19;0.00;0.00;0.62;;;;;9.90;1.00;;;;;;2269388;61;2009;-87
2021/03/12 04:02:48;320327.00;1.07;552.86;0.00;0.00;0.62;;;;;10.30;1.00;;;;;;2266170;61;1312;-85
2021/03/12 04:05:15;272509.00;0.91;470.66;0.00;0.00;0.62;;;;;10.30;1.00;;;;;;2273137;61;1092;-85
2021/03/12 04:07:43;188596.00;0.63;326.29;0.00;0.00;0.62;;;;;10.50;1.00;;;;;;2273259;61;1125;-86
2021/03/12 04:10:11;463717.00;1.55;799.38;52930.00;0.18;92.25;;;;;10.30;1.00;;;;;;2273010;61;1112;-85
2021/03/12 04:12:39;433679.00;1.45;747.71;0.00;0.00;0.62;;;;;10.60;1.00;;;;;;2273413;61;1390;-85
2021/03/12 04:15:08;423192.00;1.41;729.68;0.00;0.00;0.62;;;;;10.20;1.00;;;;;;2272885;61;1136;-85
2021/03/12 04:17:36;154861.00;0.52;268.18;0.00;0.00;0.62;;;;;10.20;1.00;;;;;;2265160;61;1094;-85
2021/03/12 04:20:06;374607.00;1.25;646.16;0.00;0.00;0.62;;;;;10.40;1.00;;;;;;2265242;61;1931;-85
2021/03/12 04:22:33;295561.00;0.99;510.29;0.00;0.00;0.62;;;;;10.20;1.00;;;;;;2264767;61;1312;-85
2021/03/12 04:25:01;377957.00;1.26;651.91;0.00;0.00;0.62;;;;;10.30;1.00;;;;;;2265110;61;1282;-86
2021/03/12 04:27:28;240109.00;0.80;414.94;0.00;0.00;0.62;;;;;10.00;1.00;;;;;;2254247;61;1021;-85
2021/03/12 04:29:56;344135.00;1.15;593.78;0.00;0.00;0.62;;;;;10.20;1.00;;;;;;2244554;62;1206;-85
2021/03/12 04:32:22;196387.00;0.65;339.70;0.00;0.00;0.62;;;;;10.00;1.00;;;;;;2245085;62;1432;-85
2021/03/12 04:34:49;235911.00;0.79;407.72;0.00;0.00;0.62;;;;;9.90;1.00;;;;;;2246107;61;1225;-85
2021/03/12 04:37:16;135516.00;0.45;234.84;0.00;0.00;0.62;;;;;10.10;1.00;;;;;;2253128;61;1132;-85
2021/03/12 04:39:43;227112.00;0.76;392.58;0.00;0.00;0.62;;;;;9.90;1.00;;;;;;2254187;61;1952;-86
2021/03/12 04:42:12;209996.00;0.70;363.13;0.00;0.00;0.62;;;;;10.00;1.00;;;;;;2255871;61;1414;-87
2021/03/12 04:44:39;240339.00;0.80;415.33;0.00;0.00;0.62;;;;;10.60;1.00;;;;;;2255522;61;1013;-86
2021/03/12 04:47:08;412652.00;1.38;711.56;61726.00;0.21;107.46;;;;;10.70;1.00;;;;;;2258222;61;1006;-86
2021/03/12 04:49:36;136699.00;0.46;236.88;0.00;0.00;0.62;;;;;10.90;1.00;;;;;;2266336;61;1106;-86
2021/03/12 04:52:04;154217.00;0.51;267.07;0.00;0.00;0.62;;;;;11.20;1.00;;;;;;2261906;61;1334;-85
2021/03/12 04:54:31;237841.00;0.79;411.04;0.00;0.00;0.62;;;;;11.10;1.00;;;;;;2256117;61;1180;-86
2021/03/12 04:56:58;189865.00;0.63;328.48;0.00;0.00;0.62;;;;;10.90;1.00;;;;;;2254115;61;1110;-86
2021/03/12 04:59:25;407824.00;1.36;703.26;0.00;0.00;0.62;;;;;10.90;1.00;;;;;;2253892;61;1129;-85
2021/03/12 05:01:53;341265.00;1.14;588.85;0.00;0.00;0.62;;;;;10.80;1.00;;;;;;2253637;61;1951;-86
2021/03/12 05:04:20;328985.00;1.10;567.74;0.00;0.00;0.62;;;;;10.50;1.00;;;;;;2255063;61;1185;-85
2021/03/12 05:06:48;160913.00;0.54;278.61;0.00;0.00;0.62;;;;;10.50;1.00;;;;;;2265570;61;1112;-86
2021/03/12 05:09:15;168865.00;0.56;292.31;0.00;0.00;0.62;;;;;10.30;1.00;;;;;;2265782;61;1488;-85
2021/03/12 05:11:43;339603.00;1.13;585.99;0.00;0.00;0.62;;;;;10.40;1.00;;;;;;2268699;61;1317;-88
2021/03/12 05:14:10;235366.00;0.78;406.78;0.00;0.00;0.62;;;;;10.50;1.00;;;;;;2260886;61;1088;-85
2021/03/12 05:16:37;264939.00;0.88;457.64;0.00;0.00;0.62;;;;;10.50;1.00;;;;;;2278600;61;1066;-85
2021/03/12 05:19:04;326858.00;1.09;564.09;0.00;0.00;0.62;;;;;10.30;1.00;;;;;;2278478;61;1809;-85
2021/03/12 05:21:32;439606.00;1.47;757.91;0.00;0.00;0.62;;;;;10.10;1.00;;;;;;2273644;61;1914;-85
2021/03/12 05:23:58;467559.00;1.56;805.99;13088.00;0.04;23.30;;;;;10.40;1.00;;;;;;2275532;61;1507;-87
2021/03/12 05:26:25;280006.00;0.93;483.55;0.00;0.00;0.62;;;;;10.40;1.00;;;;;;2275529;61;1187;-86
2021/03/12 05:28:53;293853.00;0.98;507.35;0.00;0.00;0.62;;;;;10.50;1.00;;;;;;2273176;61;1265;-85
2021/03/12 05:31:21;289091.00;0.96;499.17;0.00;0.00;0.62;;;;;10.50;1.00;;;;;;2268982;61;1176;-86
2021/03/12 05:33:47;183103.00;0.61;316.83;0.00;0.00;0.62;;;;;10.80;1.00;;;;;;2273763;61;1353;-86
2021/03/12 05:36:14;306176.00;1.02;528.54;0.00;0.00;0.62;;;;;11.20;1.00;;;;;;2260936;61;1266;-86
2021/03/12 05:38:41;191106.00;0.64;330.61;0.00;0.00;0.62;;;;;11.20;1.00;;;;;;2260750;61;1173;-86
2021/03/12 05:41:09;410011.00;1.37;707.02;0.00;0.00;0.62;;;;;11.20;1.00;;;;;;2264686;61;1938;-86
2021/03/12 05:43:35;334537.00;1.12;577.28;0.00;0.00;0.62;;;;;11.10;1.00;;;;;;2264115;61;1390;-86
2021/03/12 05:46:02;204980.00;0.68;354.50;0.00;0.00;0.62;;;;;11.20;1.00;;;;;;2252195;61;1189;-86
2021/03/12 05:48:29;157036.00;0.52;271.93;0.00;0.00;0.62;;;;;11.80;1.00;;;;;;2252356;61;1218;-86
2021/03/12 05:50:59;419778.00;1.40;723.81;33582.00;0.11;58.78;;;;;12.00;1.00;;;;;;2249133;61;1200;-86
2021/03/12 05:53:26;280094.00;0.93;483.70;53570.00;0.18;93.36;;;;;12.00;1.00;;;;;;2253918;61;1354;-86
2021/03/12 05:55:55;131764.00;0.44;228.37;0.00;0.00;0.62;;;;;11.60;1.00;;;;;;2258602;61;1150;-85
2021/03/12 05:58:21;193871.00;0.65;335.37;0.00;0.00;0.62;;;;;11.50;1.00;;;;;;2265081;61;1144;-86
2021/03/12 06:00:48;190350.00;0.63;329.31;0.00;0.00;0.62;;;;;11.40;1.00;;;;;;2264796;61;1923;-86
2021/03/12 06:03:14;212487.00;0.71;367.42;0.00;0.00;0.62;;;;;11.50;1.00;;;;;;2256340;61;1387;-86
2021/03/12 06:05:44;214386.00;0.71;370.68;45765.00;0.15;79.86;;;;;11.60;1.00;;;;;;2278236;61;1136;-86
2021/03/12 06:08:10;265487.00;0.88;458.58;148.00;0.00;0.88;;;;;11.40;1.00;;;;;;2273184;61;1022;-88
2021/03/12 06:10:37;300562.00;1.00;518.89;0.00;0.00;0.62;;;;;11.70;1.00;;;;;;2271678;61;1037;-86
2021/03/12 06:13:04;177357.00;0.59;306.94;0.00;0.00;0.62;;;;;12.00;1.00;;;;;;2277905;61;1342;-86
2021/03/12 06:15:35;198511.00;0.66;343.36;0.00;0.00;0.62;;;;;12.30;1.00;;;;;;2270097;61;1073;-86
2021/03/12 06:18:13;361427.00;1.20;623.50;17640.00;0.06;31.18;;;;;11.80;1.00;;;;;;2277926;61;1057;-86
2021/03/12 06:20:40;482041.00;1.61;830.91;96317.00;0.32;167.21;;;;;11.60;1.00;;;;;;2270532;61;1915;-85
2021/03/12 06:23:07;519778.00;1.73;895.88;88334.00;0.29;153.43;;;;;11.60;1.00;;;;;;2277911;61;1426;-86
2021/03/12 06:25:35;406699.00;1.36;701.32;0.00;0.00;0.62;;;;;11.40;1.00;;;;;;2277506;61;1064;-86
2021/03/12 06:28:17;176608.00;0.59;305.65;0.00;0.00;0.62;;;;;11.00;1.00;;;;;;2277290;61;1155;-85
2021/03/12 06:30:45;486349.00;1.62;838.32;0.00;0.00;0.62;;;;;10.80;1.00;;;;;;2256726;61;1070;-86
2021/03/12 06:33:28;504824.00;1.68;870.13;0.00;0.00;0.62;;;;;10.50;1.00;;;;;;2260643;61;1395;-86
2021/03/12 06:35:56;350309.00;1.17;604.39;0.00;0.00;0.62;;;;;11.10;1.00;;;;;;2256257;61;1136;-86
2021/03/12 06:38:23;225656.00;0.75;390.08;0.00;0.00;0.62;;;;;11.40;1.00;;;;;;2256453;61;1058;-86
2021/03/12 06:40:50;117263.00;0.39;203.36;0.00;0.00;0.62;;;;;11.80;1.00;;;;;;2256488;61;1994;-86
2021/03/12 06:43:18;215379.00;0.72;372.39;0.00;0.00;0.62;;;;;11.90;1.00;;;;;;2256790;61;1444;-85
2021/03/12 06:45:59;140196.00;0.47;242.91;0.00;0.00;0.62;;;;;11.90;1.00;;;;;;2256771;61;1319;-86
2021/03/12 06:48:28;151848.00;0.51;262.99;0.00;0.00;0.62;;;;;12.70;1.00;;;;;;2256815;61;1720;-86
2021/03/12 06:50:56;174730.00;0.58;302.41;0.00;0.00;0.62;;;;;13.70;1.00;;;;;;2257909;61;1081;-87
2021/03/12 06:53:26;175933.00;0.59;304.49;0.00;0.00;0.62;;;;;14.50;1.00;;;;;;2259912;61;1410;-87
2021/03/12 06:55:54;325549.00;1.09;561.84;66433.00;0.22;115.60;;;;;14.30;1.00;;;;;;2260932;61;1121;-86
2021/03/12 06:58:21;348711.00;1.16;601.65;87594.00;0.29;152.15;;;;;13.60;1.00;;;;;;2260469;61;1082;-85
2021/03/12 07:00:48;308147.00;1.03;531.92;0.00;0.00;0.62;;;;;12.60;1.00;;;;;;2260407;61;1993;-86
2021/03/12 07:03:33;284122.00;0.95;490.62;2593.00;0.01;5.11;;;;;11.90;1.00;;;;;;2260410;61;1396;-85
2021/03/12 07:06:13;319277.00;1.06;551.06;0.00;0.00;0.62;;;;;11.20;1.00;;;;;;2259428;61;1620;-85
2021/03/12 07:08:45;396304.00;1.32;683.45;86018.00;0.29;149.43;;;;;10.90;1.00;;;;;;2274141;61;1168;-86
2021/03/12 07:11:28;541478.00;1.80;933.27;105000.00;0.35;182.20;;;;;10.80;1.00;;;;;;2276267;61;1124;-86
2021/03/12 07:14:04;860328.00;2.87;1486.55;95262.00;0.32;165.39;;;;;11.20;1.00;;;;;;2270023;61;1353;-86
2021/03/12 07:16:32;629267.00;2.10;1084.78;63520.00;0.21;110.56;;;;;12.30;1.00;;;;;;2275958;61;1327;-86
2021/03/12 07:19:05;853830.00;2.85;1475.17;0.00;0.00;0.62;;;;;12.90;1.00;;;;;;2276158;61;1689;-86
2021/03/12 07:21:44;426356.00;1.42;735.12;0.00;0.00;0.62;;;;;12.90;1.00;;;;;;2278946;61;1990;-86
2021/03/12 07:24:14;739746.00;2.47;1276.23;76269.00;0.25;132.59;;;;;12.50;1.00;;;;;;2275902;61;1163;-85
2021/03/12 07:26:48;476791.00;1.59;821.88;0.00;0.00;0.62;;;;;12.00;1.00;;;;;;2276364;61;1140;-86
2021/03/12 07:29:22;243663.00;0.81;421.05;0.00;0.00;0.62;;;;;11.80;1.00;;;;;;2267370;61;1243;-86
2021/03/12 07:31:59;359160.00;1.20;619.60;29684.00;0.10;52.04;;;;;11.90;1.00;;;;;;2264571;61;1405;-86
2021/03/12 07:34:32;453012.00;1.51;780.96;0.00;0.00;0.62;;;;;11.50;1.00;;;;;;2263973;61;1759;-86
2021/03/12 07:37:07;453505.00;1.51;781.81;28028.00;0.09;49.17;;;;;11.20;1.00;;;;;;2266974;61;1127;-86
2021/03/12 07:39:39;518612.00;1.73;893.87;21899.00;0.07;38.56;;;;;11.50;1.00;;;;;;2263693;61;1184;-85
2021/03/12 07:42:16;493009.00;1.64;849.79;61436.00;0.20;106.96;;;;;12.20;1.00;;;;;;2262624;61;1944;-86
2021/03/12 07:44:45;97705.00;0.33;169.61;0.00;0.00;0.62;;;;;12.00;1.00;;;;;;2266905;61;1189;-86
2021/03/12 07:47:13;212484.00;0.71;367.41;0.00;0.00;0.62;;;;;12.40;1.00;;;;;;2264871;61;1098;-86
2021/03/12 07:49:39;250567.00;0.84;432.93;14971.00;0.05;26.56;;;;;12.40;1.00;;;;;;2270386;61;1185;-86
2021/03/12 07:52:09;102288.00;0.34;177.52;0.00;0.00;0.62;;;;;12.60;1.00;;;;;;2276843;61;1371;-85
2021/03/12 07:54:49;618462.00;2.06;1066.11;34503.00;0.12;60.38;;;;;12.30;1.00;;;;;;2276449;61;1180;-86
2021/03/12 07:57:37;403206.00;1.34;695.32;0.00;0.00;0.62;;;;;11.90;1.00;;;;;;2276710;61;1216;-86
2021/03/12 08:00:08;310311.00;1.03;535.64;0.00;0.00;0.62;;;;;12.00;1.00;;;;;;2276586;61;1976;-85
2021/03/12 08:02:57;321845.00;1.07;555.47;0.00;0.00;0.62;;;;;11.90;1.00;;;;;;2276949;61;1618;-86
2021/03/12 08:05:37;89312.00;0.30;155.12;0.00;0.00;0.62;;;;;12.40;1.00;;;;;;2267158;61;1092;-86
2021/03/12 08:08:04;333291.00;1.11;575.14;0.00;0.00;0.62;;;;;12.10;1.00;;;;;;2267053;61;1110;-86
2021/03/12 08:10:31;372053.00;1.24;641.77;24163.00;0.08;42.48;;;;;12.40;1.00;;;;;;2264068;61;1127;-86
2021/03/12 08:12:58;237884.00;0.79;411.11;889.00;0.00;2.16;;;;;12.30;1.00;;;;;;2267072;61;1270;-86
2021/03/12 08:15:30;508183.00;1.69;875.91;74400.00;0.25;129.36;;;;;12.30;1.00;;;;;;2261976;61;1042;-87
2021/03/12 08:18:25;450999.00;1.50;777.50;0.00;0.00;0.62;;;;;12.60;1.00;;;;;;2251226;61;1143;-86
2021/03/12 08:20:51;682228.00;2.27;1176.43;0.00;0.00;0.62;;;;;12.90;1.00;;;;;;2261724;61;1927;-87
2021/03/12 08:23:32;363505.00;1.21;627.07;0.00;0.00;0.62;;;;;13.30;1.00;;;;;;2261743;61;1294;-86
2021/03/12 08:25:59;219866.00;0.73;380.11;0.00;0.00;0.62;;;;;13.00;1.00;;;;;;2261089;61;1136;-87
2021/03/12 08:28:31;362655.00;1.21;625.61;8039.00;0.03;14.55;;;;;12.30;1.00;;;;;;2261693;61;1238;-85
2021/03/12 08:31:00;384050.00;1.28;662.39;0.00;0.00;0.62;;;;;12.20;1.00;;;;;;2251517;61;1158;-86
2021/03/12 08:33:36;402335.00;1.34;693.82;0.00;0.00;0.62;;;;;12.30;1.00;;;;;;2251567;61;1358;-87
2021/03/12 08:36:03;827830.00;2.76;1429.70;56201.00;0.19;97.91;;;;;12.80;1.00;;;;;;2253209;61;1130;-86
2021/03/12 08:38:44;612653.00;2.04;1056.07;0.00;0.00;0.62;;;;;13.00;1.00;;;;;;2248989;61;1094;-86
2021/03/12 08:41:22;288621.00;0.96;498.36;58313.00;0.19;101.56;;;;;12.60;1.00;;;;;;2249717;61;1993;-86
2021/03/12 08:43:56;321054.00;1.07;554.11;0.00;0.00;0.62;;;;;12.50;1.00;;;;;;2257381;61;1356;-86
2021/03/12 08:46:29;316944.00;1.06;547.05;87078.00;0.29;151.26;;;;;12.30;1.00;;;;;;2250434;61;1170;-86
2021/03/12 08:49:08;308698.00;1.03;532.87;27055.00;0.09;47.49;;;;;11.90;1.00;;;;;;2252944;61;1053;-86
2021/03/12 08:51:39;295739.00;0.99;510.60;14970.00;0.05;26.56;;;;;11.70;1.00;;;;;;2262815;61;1165;-86
2021/03/12 08:54:08;684136.00;2.28;1179.74;52032.00;0.17;90.70;;;;;12.10;1.00;;;;;;2269345;61;1393;-86
2021/03/12 08:56:37;374416.00;1.25;645.83;0.00;0.00;0.62;;;;;12.60;1.00;;;;;;2273420;61;1531;-86
2021/03/12 08:59:05;352861.00;1.18;608.78;87133.00;0.29;151.36;;;;;12.80;1.00;;;;;;2278073;61;1080;-86
2021/03/12 09:01:36;383253.00;1.28;661.02;0.00;0.00;0.62;;;;;12.70;1.00;;;;;;2278545;61;1982;-86
2021/03/12 09:04:04;224895.00;0.75;388.77;0.00;0.00;0.62;;;;;12.90;1.00;;;;;;2277541;61;1403;-86
2021/03/12 09:06:34;315823.00;1.05;545.12;0.00;0.00;0.62;;;;;13.10;1.00;;;;;;2268744;61;1056;-86
2021/03/12 09:09:01;324171.00;1.08;559.47;0.00;0.00;0.62;;;;;13.20;1.00;;;;;;2269325;61;1184;-86
2021/03/12 09:11:31;221890.00;0.74;383.60;0.00;0.00;0.62;;;;;13.50;1.00;;;;;;2269775;61;1073;-86
2021/03/12 09:14:05;324422.00;1.08;559.90;0.00;0.00;0.62;;;;;13.70;1.00;;;;;;2269057;61;1366;-86
2021/03/12 09:16:37;295996.00;0.99;511.04;42120.00;0.14;73.56;;;;;13.00;1.00;;;;;;2269942;61;1069;-86
2021/03/12 09:19:12;97372.00;0.32;169.04;0.00;0.00;0.62;;;;;13.20;1.00;;;;;;2265832;61;1084;-85
2021/03/12 09:21:39;114987.00;0.38;199.43;0.00;0.00;0.62;;;;;13.40;1.00;;;;;;2266799;61;2039;-86
2021/03/12 09:24:09;445271.00;1.48;767.65;69158.00;0.23;120.31;;;;;13.80;1.00;;;;;;2267144;61;1049;-86
2021/03/12 09:26:38;389269.00;1.30;671.36;39931.00;0.13;69.77;;;;;14.00;1.00;;;;;;2266794;61;1221;-85
2021/03/12 09:29:07;575409.00;1.92;991.78;72268.00;0.24;125.68;;;;;14.10;1.00;;;;;;2259756;61;1127;-86
2021/03/12 09:31:37;165148.00;0.55;285.91;0.00;0.00;0.62;;;;;13.90;1.00;;;;;;2266853;61;1050;-86
2021/03/12 09:34:09;213799.00;0.71;369.67;0.00;0.00;0.62;;;;;13.60;1.00;;;;;;2258218;61;1405;-86
2021/03/12 09:36:46;313223.00;1.04;540.65;225.00;0.00;1.01;;;;;13.60;1.00;;;;;;2249044;61;1255;-86
2021/03/12 09:39:16;259924.00;0.87;449.02;0.00;0.00;0.62;;;;;13.30;1.00;;;;;;2260608;61;1097;-86
2021/03/12 09:41:44;125928.00;0.42;218.31;0.00;0.00;0.62;;;;;13.30;1.00;;;;;;2249369;61;2034;-86
2021/03/12 09:44:14;125032.00;0.42;216.76;0.00;0.00;0.62;;;;;13.50;1.00;;;;;;2249604;61;1782;-87
2021/03/12 09:46:49;198800.00;0.66;343.86;0.00;0.00;0.62;;;;;13.50;1.00;;;;;;2249635;61;1546;-86
2021/03/12 09:49:27;352541.00;1.18;608.23;49895.00;0.17;87.00;;;;;13.10;1.00;;;;;;2255967;61;1144;-86
2021/03/12 09:51:57;292819.00;0.98;505.58;0.00;0.00;0.62;;;;;13.00;1.00;;;;;;2261085;61;1423;-86
2021/03/12 09:54:26;445811.00;1.49;768.58;3366.00;0.01;6.45;;;;;13.40;1.00;;;;;;2265905;61;1502;-87
2021/03/12 09:57:05;330245.00;1.10;569.91;1702.00;0.01;3.57;;;;;13.70;1.00;;;;;;2265395;61;1136;-86
2021/03/12 09:59:35;265067.00;0.88;457.86;0.00;0.00;0.62;;;;;13.70;1.00;;;;;;2262308;61;1034;-86
2021/03/12 10:02:06;98109.00;0.33;170.31;0.00;0.00;0.62;;;;;13.40;1.00;;;;;;2261128;61;2029;-86
2021/03/12 10:04:36;236669.00;0.79;409.02;0.00;0.00;0.62;;;;;13.60;1.00;;;;;;2249194;61;1149;-86
2021/03/12 10:07:07;62550.00;0.21;108.88;0.00;0.00;0.62;;;;;13.70;1.00;;;;;;2242873;61;1118;-86
2021/03/12 10:09:35;481500.00;1.61;829.98;25969.00;0.09;45.61;;;;;13.90;1.00;;;;;;2249245;61;1082;-86
2021/03/12 10:12:04;278262.00;0.93;480.55;68877.00;0.23;119.82;;;;;13.90;1.00;;;;;;2249141;61;1315;-86